createdAt,value
2019-02-06T00:02:12.887Z,12.03
2019-02-06T00:04:43.169Z,11.13
2019-02-06T00:07:13.521Z,10.90
2019-02-06T00:09:43.841Z,11.60
2019-02-06T00:12:14.093Z,9.80
2019-02-06T00:14:44.535Z,11.53
2019-02-06T00:17:14.936Z,11.20
2019-02-06T00:19:45.285Z,11.30
2019-02-06T00:22:15.543Z,10.93
2019-02-06T00:24:45.812Z,11.53
2019-02-06T00:27:16.083Z,11.67
2019-02-06T00:29:46.361Z,10.40
2019-02-06T00:32:16.633Z,10.80
2019-02-06T00:34:46.907Z,9.77
2019-02-06T00:37:17.174Z,10.20
2019-02-06T00:39:47.465Z,10.43
2019-02-06T00:42:18.136Z,9.77
2019-02-06T00:44:48.428Z,11.23
2019-02-06T00:47:18.708Z,11.03
2019-02-06T00:49:48.991Z,11.53
2019-02-06T00:52:19.254Z,9.80
2019-02-06T00:54:49.685Z,10.60
2019-02-06T00:57:19.996Z,11.23
2019-02-06T00:59:50.214Z,9.20
2019-02-06T01:02:20.467Z,9.43
2019-02-06T01:04:50.724Z,11.93
2019-02-06T01:07:20.995Z,11.17
2019-02-06T01:09:51.535Z,11.30
2019-02-06T01:12:21.863Z,11.00
2019-02-06T01:14:52.154Z,11.30
2019-02-06T01:17:22.411Z,10.80
2019-02-06T01:19:52.674Z,11.53
2019-02-06T01:22:22.923Z,11.00
2019-02-06T01:24:53.490Z,11.27
2019-02-06T01:27:23.739Z,9.43
2019-02-06T01:29:54.017Z,11.67
2019-02-06T01:32:24.279Z,11.57
2019-02-06T01:34:54.565Z,11.30
2019-02-06T01:37:24.824Z,11.20
2019-02-06T01:39:55.251Z,11.27
2019-02-06T01:42:25.501Z,9.73
2019-02-06T01:44:55.794Z,11.27
2019-02-06T01:47:26.085Z,10.60
2019-02-06T01:49:56.361Z,9.93
2019-02-06T01:52:26.627Z,10.17
2019-02-06T01:54:57.448Z,11.43
2019-02-06T01:57:27.716Z,11.47
2019-02-06T01:59:57.998Z,11.13
2019-02-06T02:02:28.286Z,10.70
2019-02-06T02:04:59.643Z,10.40
2019-02-06T02:07:29.901Z,11.90
2019-02-06T02:10:00.350Z,10.33
2019-02-06T02:12:30.659Z,11.40
2019-02-06T02:15:00.936Z,10.93
2019-02-06T02:17:31.528Z,11.53
2019-02-06T02:20:01.882Z,9.27
2019-02-06T02:22:32.496Z,11.27
2019-02-06T02:25:02.838Z,10.33
2019-02-06T02:27:33.090Z,10.80
2019-02-06T02:30:05.571Z,10.87
2019-02-06T02:32:35.908Z,9.50
2019-02-06T02:35:07.969Z,10.00
2019-02-06T02:37:38.224Z,11.07
2019-02-06T02:40:11.615Z,10.27
2019-02-06T02:42:41.916Z,9.87
2019-02-06T02:45:14.799Z,10.30
2019-02-06T02:47:45.444Z,10.73
2019-02-06T02:50:15.705Z,11.27
2019-02-06T02:52:45.964Z,10.50
2019-02-06T02:55:16.303Z,10.47
2019-02-06T02:57:46.547Z,9.50
2019-02-06T03:00:22.082Z,10.70
2019-02-06T03:03:10.137Z,10.17
2019-02-06T03:05:40.399Z,10.20
2019-02-06T03:08:10.796Z,9.67
2019-02-06T03:10:41.064Z,9.80
2019-02-06T03:13:11.331Z,9.37
2019-02-06T03:15:41.581Z,11.10
2019-02-06T03:18:11.840Z,10.20
2019-02-06T03:20:42.094Z,9.70
2019-02-06T03:23:12.350Z,10.47
2019-02-06T03:25:43.092Z,10.00
2019-02-06T03:28:13.359Z,10.20
2019-02-06T03:30:43.824Z,10.17
2019-02-06T03:33:14.059Z,10.37
2019-02-06T03:35:44.337Z,10.47
2019-02-06T03:38:14.610Z,10.80
2019-02-06T03:40:45.068Z,10.43
2019-02-06T03:43:15.326Z,10.43
2019-02-06T03:45:45.601Z,11.33
2019-02-06T03:48:15.863Z,9.63
2019-02-06T03:50:46.119Z,9.30
2019-02-06T03:53:16.399Z,9.80
2019-02-06T03:55:46.663Z,10.23
2019-02-06T03:58:16.922Z,10.10
2019-02-06T04:00:47.191Z,9.77
2019-02-06T04:03:17.706Z,9.17
2019-02-06T04:05:47.971Z,9.30
2019-02-06T04:08:18.623Z,9.17
2019-02-06T04:10:48.896Z,8.87
2019-02-06T04:13:19.178Z,9.80
2019-02-06T04:15:49.506Z,9.10
2019-02-06T04:18:19.780Z,9.67
2019-02-06T04:20:50.027Z,10.53
2019-02-06T04:23:20.462Z,10.43
2019-02-06T04:25:50.712Z,9.10
2019-02-06T04:28:21.014Z,9.60
2019-02-06T04:30:51.270Z,9.23
2019-02-06T04:33:21.538Z,9.63
2019-02-06T04:35:51.807Z,10.17
2019-02-06T04:38:22.056Z,9.73
2019-02-06T04:40:52.426Z,10.37
2019-02-06T04:43:22.658Z,11.50
2019-02-06T04:45:52.987Z,11.20
2019-02-06T04:48:23.245Z,10.33
2019-02-06T04:50:53.874Z,10.53
2019-02-06T04:53:24.125Z,10.87
2019-02-06T04:55:54.512Z,10.03
2019-02-06T04:58:24.785Z,6.87
2019-02-06T05:00:55.034Z,9.90
2019-02-06T05:03:25.934Z,8.53
2019-02-06T05:05:56.327Z,11.10
2019-02-06T05:08:27.668Z,10.53
2019-02-06T05:10:57.924Z,10.07
2019-02-06T05:13:28.171Z,9.30
2019-02-06T05:15:58.453Z,8.90
2019-02-06T05:18:28.787Z,10.10
2019-02-06T05:20:59.031Z,9.30
2019-02-06T05:23:29.306Z,11.23
2019-02-06T05:25:59.561Z,10.40
2019-02-06T05:28:29.836Z,9.83
2019-02-06T05:31:00.112Z,10.70
2019-02-06T05:33:30.795Z,10.40
2019-02-06T05:36:01.049Z,10.93
2019-02-06T05:38:32.406Z,11.17
2019-02-06T05:41:02.664Z,12.60
2019-02-06T05:43:33.101Z,12.37
2019-02-06T05:46:03.372Z,10.37
2019-02-06T05:48:34.019Z,9.07
2019-02-06T05:51:04.264Z,11.73
2019-02-06T05:53:34.574Z,9.67
2019-02-06T05:56:06.343Z,10.37
2019-02-06T05:58:36.809Z,11.10
2019-02-06T06:01:07.105Z,9.70
2019-02-06T06:03:37.357Z,9.83
2019-02-06T06:06:07.611Z,9.87
2019-02-06T06:08:37.888Z,11.13
2019-02-06T06:11:08.166Z,11.67
2019-02-06T06:13:38.528Z,11.13
2019-02-06T06:16:08.778Z,10.80
2019-02-06T06:18:39.063Z,11.67
2019-02-06T06:21:09.322Z,11.73
2019-02-06T06:23:39.590Z,10.57
2019-02-06T06:26:09.990Z,11.00
2019-02-06T06:28:40.327Z,9.97
2019-02-06T06:31:10.577Z,10.17
2019-02-06T06:33:41.817Z,9.87
2019-02-06T06:36:12.070Z,10.53
2019-02-06T06:38:42.342Z,10.53
2019-02-06T06:41:14.153Z,10.10
2019-02-06T06:43:44.407Z,11.60
2019-02-06T06:46:14.938Z,10.87
2019-02-06T06:48:45.210Z,10.87
2019-02-06T06:51:15.481Z,10.70
2019-02-06T06:53:45.819Z,10.33
2019-02-06T06:56:16.079Z,11.30
2019-02-06T06:58:46.400Z,12.20
2019-02-06T07:01:16.649Z,10.70
2019-02-06T07:03:47.099Z,11.70
2019-02-06T07:06:17.381Z,11.10
2019-02-06T07:08:47.645Z,10.20
2019-02-06T07:11:17.904Z,10.67
2019-02-06T07:13:51.447Z,9.97
2019-02-06T07:16:20.622Z,10.23
2019-02-06T07:18:50.880Z,9.17
2019-02-06T07:21:21.150Z,10.53
2019-02-06T07:23:52.953Z,10.70
2019-02-06T07:26:23.207Z,9.97
2019-02-06T07:28:53.534Z,11.23
2019-02-06T07:31:23.953Z,10.60
2019-02-06T07:33:54.293Z,9.47
2019-02-06T07:36:24.611Z,11.30
2019-02-06T07:38:54.875Z,10.70
2019-02-06T07:41:25.499Z,10.60
2019-02-06T07:43:56.362Z,10.87
2019-02-06T07:46:26.640Z,10.90
2019-02-06T07:48:56.927Z,9.80
2019-02-06T07:51:27.183Z,9.60
2019-02-06T07:53:58.541Z,10.73
2019-02-06T07:56:29.033Z,10.83
2019-02-06T07:58:59.298Z,9.93
2019-02-06T08:01:29.552Z,11.43
2019-02-06T08:03:59.853Z,11.60
2019-02-06T08:06:30.271Z,11.17
2019-02-06T08:09:00.537Z,10.53
2019-02-06T08:11:31.957Z,9.60
2019-02-06T08:14:02.226Z,10.47
2019-02-06T08:16:32.488Z,10.93
2019-02-06T08:19:02.795Z,10.83
2019-02-06T08:21:33.056Z,12.13
2019-02-06T08:24:03.616Z,10.27
2019-02-06T08:26:33.930Z,11.27
2019-02-06T08:29:04.289Z,11.87
2019-02-06T08:31:34.620Z,11.47
2019-02-06T08:34:04.902Z,10.73
2019-02-06T08:36:35.152Z,10.50
2019-02-06T08:39:07.434Z,10.63
2019-02-06T08:41:37.691Z,10.97
2019-02-06T08:44:07.984Z,11.50
2019-02-06T08:46:38.226Z,9.63
2019-02-06T08:49:10.896Z,9.93
2019-02-06T08:51:40.434Z,10.40
2019-02-06T08:54:10.714Z,11.73
2019-02-06T08:56:40.965Z,10.23
2019-02-06T08:59:11.411Z,10.23
2019-02-06T09:01:41.662Z,9.10
2019-02-06T09:04:16.934Z,8.90
2019-02-06T09:06:47.179Z,9.03
2019-02-06T09:09:17.443Z,10.07
2019-02-06T09:11:47.780Z,8.70
2019-02-06T09:14:18.060Z,9.33
2019-02-06T09:16:48.299Z,9.00
2019-02-06T09:19:18.945Z,9.27
2019-02-06T09:21:49.209Z,9.27
2019-02-06T09:24:19.488Z,9.20
2019-02-06T09:26:49.743Z,7.40
2019-02-06T09:29:20.017Z,7.23
2019-02-06T09:31:50.264Z,7.17
2019-02-06T09:34:21.607Z,7.87
2019-02-06T09:36:52.655Z,7.57
2019-02-06T09:39:24.469Z,7.57
2019-02-06T09:41:54.724Z,7.03
2019-02-06T09:44:25.061Z,8.10
2019-02-06T09:46:55.715Z,7.07
2019-02-06T09:49:26.057Z,7.30
2019-02-06T09:51:56.878Z,7.20
2019-02-06T09:54:27.142Z,8.03
2019-02-06T09:56:57.387Z,9.00
2019-02-06T09:59:27.649Z,8.63
2019-02-06T10:01:59.463Z,8.90
2019-02-06T10:04:29.725Z,9.50
2019-02-06T10:07:00.047Z,9.87
2019-02-06T10:09:30.307Z,8.87
2019-02-06T10:12:00.574Z,9.27
2019-02-06T10:14:32.432Z,8.93
2019-02-06T10:17:02.689Z,9.67
2019-02-06T10:19:33.284Z,9.33
2019-02-06T10:22:04.761Z,8.03
2019-02-06T10:24:35.111Z,9.37
2019-02-06T10:27:05.371Z,10.57
2019-02-06T10:29:35.852Z,10.90
2019-02-06T10:32:06.102Z,9.20
2019-02-06T10:34:36.383Z,9.57
2019-02-06T10:37:06.650Z,9.07
2019-02-06T10:39:36.913Z,8.30
2019-02-06T10:42:07.386Z,8.83
2019-02-06T10:44:37.635Z,8.70
2019-02-06T10:47:07.893Z,7.20
2019-02-06T10:49:39.140Z,7.90
2019-02-06T10:52:09.462Z,7.53
2019-02-06T10:54:39.750Z,7.70
2019-02-06T10:57:10.384Z,8.60
2019-02-06T10:59:41.619Z,8.27
2019-02-06T11:02:12.869Z,8.90
2019-02-06T11:04:43.148Z,9.00
2019-02-06T11:07:13.406Z,5.63
2019-02-06T11:09:46.514Z,8.33
2019-02-06T11:12:16.501Z,6.63
2019-02-06T11:14:47.740Z,9.03
2019-02-06T11:17:18.010Z,9.57
2019-02-06T11:19:48.284Z,9.57
2019-02-06T11:22:18.549Z,9.80
2019-02-06T11:24:49.088Z,8.13
2019-02-06T11:27:19.340Z,6.83
2019-02-06T11:29:49.614Z,7.47
2019-02-06T11:32:19.863Z,6.17
2019-02-06T11:34:50.144Z,7.47
2019-02-06T11:37:21.186Z,6.83
2019-02-06T11:39:57.933Z,6.80
2019-02-06T11:42:23.445Z,9.53
2019-02-06T11:44:53.705Z,9.50
2019-02-06T11:47:24.028Z,8.23
2019-02-06T11:49:55.947Z,9.47
2019-02-06T11:52:26.373Z,8.10
2019-02-06T11:54:56.634Z,8.87
2019-02-06T11:57:26.894Z,8.20
2019-02-06T11:59:57.207Z,7.50
2019-02-06T12:02:37.015Z,7.20
2019-02-06T12:05:00.637Z,8.10
2019-02-06T12:07:31.203Z,7.43
2019-02-06T12:10:09.499Z,7.97
2019-02-06T12:12:33.756Z,8.03
2019-02-06T12:15:12.455Z,8.93
2019-02-06T12:17:42.988Z,9.23
2019-02-06T12:20:20.706Z,8.57
2019-02-06T12:22:51.154Z,9.40
2019-02-06T12:25:21.454Z,9.67
2019-02-06T12:27:54.927Z,8.87
2019-02-06T12:30:28.168Z,8.97
2019-02-06T12:32:58.493Z,9.77
2019-02-06T12:35:30.150Z,8.80
2019-02-06T12:38:01.287Z,8.70
2019-02-06T12:40:31.609Z,8.43
2019-02-06T12:43:01.910Z,9.80
2019-02-06T12:45:33.982Z,9.47
2019-02-06T12:48:04.674Z,9.77
2019-02-06T12:50:34.961Z,9.37
2019-02-06T12:53:05.207Z,8.50
2019-02-06T12:55:41.788Z,9.67
2019-02-06T12:58:12.033Z,9.70
2019-02-06T13:00:44.298Z,9.97
2019-02-06T13:03:14.555Z,8.57
2019-02-06T13:05:44.829Z,9.83
2019-02-06T13:08:17.225Z,9.67
2019-02-06T13:10:48.362Z,10.60
2019-02-06T13:13:18.898Z,10.07
2019-02-06T13:15:49.261Z,9.30
2019-02-06T13:18:19.694Z,8.93
2019-02-06T13:20:51.491Z,8.33
2019-02-06T13:23:22.863Z,7.37
2019-02-06T13:25:53.613Z,9.43
2019-02-06T13:28:23.895Z,7.17
2019-02-06T13:30:56.857Z,9.23
2019-02-06T13:33:27.096Z,9.70
2019-02-06T13:35:57.491Z,9.93
2019-02-06T13:38:28.544Z,9.70
2019-02-06T13:40:58.816Z,10.60
2019-02-06T13:43:29.074Z,10.03
2019-02-06T13:45:59.344Z,8.70
2019-02-06T13:48:29.678Z,10.03
2019-02-06T13:50:59.948Z,11.07
2019-02-06T13:53:30.385Z,10.30
2019-02-06T13:56:00.719Z,9.70
2019-02-06T13:58:30.983Z,9.17
2019-02-06T14:01:01.278Z,10.27
2019-02-06T14:03:31.523Z,9.40
2019-02-06T14:06:01.816Z,9.87
2019-02-06T14:08:33.371Z,9.97
2019-02-06T14:11:03.805Z,9.83
2019-02-06T14:13:34.080Z,12.03
2019-02-06T14:16:05.563Z,12.00
2019-02-06T14:18:35.825Z,10.83
2019-02-06T14:21:06.380Z,11.10
2019-02-06T14:23:39.893Z,12.80
2019-02-06T14:26:22.145Z,11.20
2019-02-06T14:29:28.968Z,11.20
2019-02-06T14:32:08.538Z,10.80
2019-02-06T14:34:50.826Z,11.23
2019-02-06T14:37:36.320Z,12.00
2019-02-06T14:40:21.856Z,12.63
2019-02-06T14:43:10.764Z,13.03
2019-02-06T14:46:12.754Z,11.97
2019-02-06T14:48:51.673Z,13.07
2019-02-06T14:51:50.146Z,12.43
2019-02-06T14:54:26.663Z,12.90
2019-02-06T14:57:18.297Z,11.93
2019-02-06T15:00:03.517Z,12.73
2019-02-06T15:03:03.634Z,12.80
2019-02-06T15:05:40.030Z,10.50
2019-02-06T15:08:41.163Z,14.33
2019-02-06T15:11:22.237Z,13.17
2019-02-06T15:14:04.572Z,13.10
2019-02-06T15:16:41.049Z,12.57
2019-02-06T15:19:19.826Z,12.27
2019-02-06T15:22:11.917Z,15.73
2019-02-06T15:24:51.479Z,15.47
2019-02-06T15:27:25.017Z,15.13
2019-02-06T15:29:58.726Z,21.30
2019-02-06T15:32:41.224Z,15.90
2019-02-06T15:35:18.016Z,14.80
2019-02-06T15:38:26.775Z,15.07
2019-02-06T15:41:33.173Z,13.63
2019-02-06T15:44:09.767Z,12.10
2019-02-06T15:46:45.795Z,11.10
2019-02-06T15:49:25.297Z,13.10
2019-02-06T15:52:15.238Z,7.93
2019-02-06T15:54:48.784Z,13.77
2019-02-06T15:57:22.405Z,11.60
2019-02-06T16:00:10.988Z,13.10
2019-02-06T16:02:59.586Z,12.90
2019-02-06T16:05:55.715Z,11.50
2019-02-06T16:08:29.214Z,9.10
2019-02-06T16:11:20.893Z,6.87
2019-02-06T16:14:17.358Z,9.47
2019-02-06T16:17:27.376Z,12.77
2019-02-06T16:20:16.160Z,12.00
2019-02-06T16:23:16.929Z,12.80
2019-02-06T16:26:14.603Z,11.83
2019-02-06T16:29:10.219Z,10.87
2019-02-06T16:31:44.086Z,13.97
2019-02-06T16:34:38.780Z,12.87
2019-02-06T16:37:30.644Z,12.70
2019-02-06T16:40:30.392Z,9.17
2019-02-06T16:43:25.804Z,13.07
2019-02-06T16:46:03.665Z,14.50
2019-02-06T16:48:39.929Z,13.93
2019-02-06T16:51:16.528Z,15.27
2019-02-06T16:53:55.908Z,14.67
2019-02-06T16:56:38.371Z,14.10
2019-02-06T16:59:12.153Z,17.63
2019-02-06T17:01:51.838Z,16.13
2019-02-06T17:04:29.435Z,16.30
2019-02-06T17:07:05.650Z,16.20
2019-02-06T17:09:42.813Z,9.53
2019-02-06T17:12:28.302Z,15.57
2019-02-06T17:15:13.682Z,12.23
2019-02-06T17:17:59.766Z,14.50
2019-02-06T17:28:02.298Z,14.43
2019-02-06T17:30:50.210Z,4.87
2019-02-06T17:37:54.374Z,16.80
2019-02-06T17:40:49.283Z,19.23
2019-02-06T17:43:39.063Z,20.07
2019-02-06T17:46:28.177Z,18.00
2019-02-06T17:49:11.459Z,13.23
2019-02-06T17:51:56.866Z,20.00
2019-02-06T17:54:59.842Z,17.30
2019-02-06T17:57:30.117Z,15.03
2019-02-06T18:00:01.041Z,17.80
2019-02-06T18:02:32.374Z,20.53
2019-02-06T18:05:06.239Z,20.50
2019-02-06T18:07:36.960Z,21.07
2019-02-06T18:10:16.468Z,19.57
2019-02-06T18:12:47.144Z,20.97
2019-02-06T18:15:17.548Z,20.57
2019-02-06T18:17:47.976Z,17.63
2019-02-06T18:20:18.393Z,22.00
2019-02-06T18:22:49.237Z,21.17
2019-02-06T18:25:19.975Z,22.80
2019-02-06T18:27:50.636Z,19.00
2019-02-06T18:30:23.526Z,22.30
2019-02-06T18:32:55.097Z,21.07
2019-02-06T18:35:25.741Z,21.07
2019-02-06T18:37:56.590Z,19.40
2019-02-06T18:40:27.693Z,22.67
2019-02-06T18:42:58.871Z,22.17
2019-02-06T18:45:29.191Z,23.20
2019-02-06T18:48:02.803Z,22.50
2019-02-06T18:50:38.077Z,21.17
2019-02-06T18:53:08.954Z,20.30
2019-02-06T18:55:40.059Z,23.00
2019-02-06T18:58:12.189Z,21.83
2019-02-06T19:00:44.509Z,23.53
2019-02-06T19:03:23.104Z,24.03
2019-02-06T19:05:53.600Z,27.50
2019-02-06T19:08:25.654Z,26.63
2019-02-06T19:10:56.573Z,25.80
2019-02-06T19:13:29.386Z,25.83
2019-02-06T19:16:01.176Z,21.50
2019-02-06T19:18:32.368Z,21.30
2019-02-06T19:21:05.410Z,23.60
2019-02-06T19:23:37.367Z,23.63
2019-02-06T19:26:19.855Z,21.57
2019-02-06T19:28:51.657Z,21.13
2019-02-06T19:31:25.412Z,13.77
2019-02-06T19:33:56.621Z,20.40
2019-02-06T19:36:27.339Z,12.03
2019-02-06T19:38:58.526Z,19.93
2019-02-06T19:41:30.397Z,21.03
2019-02-06T19:44:00.674Z,19.70
2019-02-06T19:46:31.056Z,22.90
2019-02-06T19:49:01.926Z,23.67
2019-02-06T19:51:36.831Z,20.37
2019-02-06T19:54:08.835Z,23.23
2019-02-06T19:56:39.279Z,24.83
2019-02-06T19:59:10.735Z,24.03
2019-02-06T20:01:43.379Z,26.30
2019-02-06T20:04:15.902Z,20.63
2019-02-06T20:06:47.101Z,14.40
2019-02-06T20:09:22.074Z,14.00
2019-02-06T20:11:56.159Z,22.33
2019-02-06T20:14:26.726Z,24.67
2019-02-06T20:16:57.152Z,24.27
2019-02-06T20:19:27.700Z,23.77
2019-02-06T20:21:57.974Z,23.80
2019-02-06T20:24:28.239Z,21.87
2019-02-06T20:26:58.647Z,23.50
2019-02-06T20:29:29.107Z,19.53
2019-02-06T20:31:59.705Z,20.33
2019-02-06T20:34:31.515Z,24.07
2019-02-06T20:37:01.942Z,18.10
2019-02-06T20:39:32.202Z,20.33
2019-02-06T20:42:02.532Z,21.63
2019-02-06T20:44:33.357Z,20.07
2019-02-06T20:47:03.712Z,22.77
2019-02-06T20:49:34.343Z,23.33
2019-02-06T20:52:04.745Z,21.10
2019-02-06T20:54:35.408Z,23.47
2019-02-06T20:57:13.683Z,25.80
2019-02-06T20:59:38.173Z,21.10
2019-02-06T21:02:09.022Z,22.43
2019-02-06T21:04:39.569Z,21.67
2019-02-06T21:07:10.119Z,25.97
2019-02-06T21:09:40.747Z,26.87
2019-02-06T21:12:12.899Z,21.80
2019-02-06T21:14:44.800Z,23.93
2019-02-06T21:17:17.790Z,22.37
2019-02-06T21:19:48.458Z,20.03
2019-02-06T21:22:21.142Z,25.53
2019-02-06T21:24:51.732Z,25.23
2019-02-06T21:27:24.433Z,23.53
2019-02-06T21:29:57.757Z,25.47
2019-02-06T21:32:30.825Z,24.10
2019-02-06T21:35:01.472Z,21.87
2019-02-06T21:37:33.779Z,26.57
2019-02-06T21:40:13.320Z,26.87
2019-02-06T21:42:47.850Z,25.27
2019-02-06T21:45:19.641Z,27.50
2019-02-06T21:47:50.591Z,24.80
2019-02-06T21:50:26.991Z,25.57
2019-02-06T21:52:58.035Z,26.03
2019-02-06T21:55:28.609Z,27.43
2019-02-06T21:57:59.165Z,26.53
2019-02-06T22:00:33.730Z,26.77
2019-02-06T22:03:04.214Z,26.37
2019-02-06T22:05:34.803Z,26.17
2019-02-06T22:08:05.674Z,26.30
2019-02-06T22:10:36.003Z,25.27
2019-02-06T22:13:06.469Z,26.73
2019-02-06T22:15:36.760Z,28.53
2019-02-06T22:18:07.020Z,26.17
2019-02-06T22:20:37.372Z,26.73
2019-02-06T22:23:07.652Z,27.30
2019-02-06T22:25:37.905Z,25.60
2019-02-06T22:28:08.172Z,26.23
2019-02-06T22:30:38.561Z,25.30
2019-02-06T22:33:09.118Z,26.00
2019-02-06T22:35:39.382Z,24.87
2019-02-06T22:38:09.648Z,26.90
2019-02-06T22:40:39.985Z,26.00
2019-02-06T22:43:10.264Z,25.33
2019-02-06T22:45:40.534Z,26.93
2019-02-06T22:48:11.587Z,25.67
2019-02-06T22:50:41.951Z,25.20
2019-02-06T22:53:12.224Z,27.97
2019-02-06T22:55:42.504Z,24.70
2019-02-06T22:58:12.786Z,26.63
2019-02-06T23:01:02.120Z,27.40
2019-02-06T23:03:37.004Z,25.33
2019-02-06T23:06:07.537Z,27.30
2019-02-06T23:08:39.860Z,28.30
2019-02-06T23:11:10.147Z,26.10
2019-02-06T23:13:42.040Z,27.20
2019-02-06T23:16:12.322Z,26.43
2019-02-06T23:18:42.651Z,27.23
2019-02-06T23:21:12.941Z,27.87
2019-02-06T23:23:43.201Z,26.93
2019-02-06T23:26:13.566Z,27.83
2019-02-06T23:28:43.837Z,27.07
2019-02-06T23:31:14.118Z,26.63
2019-02-06T23:33:45.154Z,27.93
2019-02-06T23:36:15.706Z,27.60
2019-02-06T23:38:45.988Z,28.70
2019-02-06T23:41:16.266Z,27.33
2019-02-06T23:43:46.570Z,27.67
2019-02-06T23:46:16.838Z,27.37
2019-02-06T23:48:48.133Z,26.83
2019-02-06T23:51:20.718Z,27.67
2019-02-06T23:53:52.047Z,26.03
2019-02-06T23:56:22.325Z,28.33
2019-02-06T23:58:52.656Z,27.23
